Time;durP1;ratioP1;P1;durP2;ratioP2;P2;SDS_P1;SDS_P2;PMS_P1;PMS_P2;Temp;Humidity;BMP_temperature;BMP_pressure;BME280_temperature;BME280_humidity;BME280_pressure;Samples;Min_cycle;Max_cycle;Signal;HPM_P1;HPM_P2
2023/07/20 00:00:58;;;;;;;8.73;5.20;;;;;;;18.55;73.95;98520.13;5022353;28;20060;-81
2023/07/20 00:03:24;;;;;;;10.55;6.10;;;;;;;18.40;74.60;98510.47;5022335;28;20278;-81
2023/07/20 00:05:53;;;;;;;7.47;5.32;;;;;;;18.32;74.81;98532.03;5021217;28;20440;-81
2023/07/20 00:08:19;;;;;;;9.48;5.55;;;;;;;18.16;75.57;98520.75;5014302;28;20056;-81
2023/07/20 00:10:44;;;;;;;10.23;5.60;;;;;;;18.10;76.04;98542.78;4985424;28;20034;-82
2023/07/20 00:13:11;;;;;;;9.57;6.35;;;;;;;18.04;76.00;98528.63;5030366;28;20032;-84
2023/07/20 00:15:37;;;;;;;17.35;6.78;;;;;;;18.10;76.78;98537.41;5018681;28;20125;-82
2023/07/20 00:18:03;;;;;;;13.27;6.82;;;;;;;18.03;76.76;98521.59;5018465;28;20032;-83
2023/07/20 00:20:29;;;;;;;12.90;7.40;;;;;;;17.98;77.44;98513.59;5018689;28;20442;-81
2023/07/20 00:22:54;;;;;;;7.57;6.03;;;;;;;18.05;77.51;98507.78;5033270;28;20069;-81
2023/07/20 00:25:20;;;;;;;8.27;5.95;;;;;;;18.15;77.01;98515.69;5020457;28;20124;-81
2023/07/20 00:27:45;;;;;;;9.32;6.78;;;;;;;18.01;77.52;98523.00;5008553;28;20025;-81
2023/07/20 00:30:11;;;;;;;8.30;5.47;;;;;;;17.68;78.64;98539.38;5026312;28;20060;-82
2023/07/20 00:32:37;;;;;;;7.60;5.13;;;;;;;17.27;79.49;98526.97;5035042;28;20481;-82
2023/07/20 00:35:02;;;;;;;6.95;4.03;;;;;;;17.82;77.52;98529.34;5032195;28;20057;-82
2023/07/20 00:37:28;;;;;;;6.25;4.43;;;;;;;17.90;77.33;98512.44;5013635;28;20036;-82
2023/07/20 00:39:54;;;;;;;3.80;2.92;;;;;;;17.98;76.39;98519.81;5027931;28;20430;-82
2023/07/20 00:42:19;;;;;;;5.20;2.90;;;;;;;18.06;76.14;98515.59;5030772;28;20167;-82
2023/07/20 00:44:45;;;;;;;3.17;1.90;;;;;;;17.95;76.12;98503.44;5021399;28;20077;-82
2023/07/20 00:47:10;;;;;;;3.28;2.30;;;;;;;17.98;76.34;98529.81;5024537;28;20064;-83
2023/07/20 00:49:37;;;;;;;5.05;1.88;;;;;;;18.02;76.12;98535.44;5024581;28;20040;-82
2023/07/20 00:52:05;;;;;;;2.63;2.42;;;;;;;17.91;76.02;98507.81;5024722;28;20029;-82
2023/07/20 00:54:31;;;;;;;3.78;2.15;;;;;;;18.02;76.27;98519.22;5022843;28;20069;-82
2023/07/20 00:56:57;;;;;;;2.22;1.70;;;;;;;18.01;76.49;98523.00;5030164;28;20064;-83
2023/07/20 00:59:23;;;;;;;2.60;2.40;;;;;;;17.92;75.79;98502.13;5031589;28;20085;-82
2023/07/20 01:01:49;;;;;;;4.25;2.90;;;;;;;17.74;77.08;98497.66;5025595;28;20033;-82
2023/07/20 01:04:14;;;;;;;6.43;2.83;;;;;;;17.70;77.00;98502.09;5030546;28;20424;-82
2023/07/20 01:07:06;;;;;;;3.22;2.92;;;;;;;17.67;77.47;98510.00;5019743;28;20048;-82
2023/07/20 01:09:58;;;;;;;4.82;3.83;;;;;;;17.59;77.40;98500.69;5022919;28;20592;-82
2023/07/20 01:12:35;;;;;;;8.32;3.88;;;;;;;17.59;77.35;98499.91;5019862;28;20091;-82
2023/07/20 01:15:01;;;;;;;5.75;3.13;;;;;;;17.46;77.58;98500.69;5026761;28;20079;-83
2023/07/20 01:17:27;;;;;;;6.60;4.72;;;;;;;17.30;78.74;98502.88;5032498;28;20083;-82
2023/07/20 01:19:52;;;;;;;5.25;3.80;;;;;;;17.52;77.62;98504.88;5013341;28;20049;-83
2023/07/20 01:23:15;;;;;;;5.82;3.75;;;;;;;17.31;78.38;98515.28;4997275;28;20053;-82
2023/07/20 01:26:02;;;;;;;7.32;4.43;;;;;;;16.95;80.01;98514.38;5002461;28;20052;-82
2023/07/20 01:28:30;;;;;;;4.18;3.78;;;;;;;17.19;78.85;98512.25;4986152;28;20097;-82
2023/07/20 01:31:24;;;;;;;6.70;3.75;;;;;;;16.53;81.67;98509.16;5015464;28;20048;-82
2023/07/20 01:33:51;;;;;;;4.53;3.60;;;;;;;17.30;79.04;98502.88;5029564;28;20021;-81
2023/07/20 01:36:19;;;;;;;4.25;3.63;;;;;;;17.29;78.51;98508.59;5026377;28;20045;-81
2023/07/20 01:38:46;;;;;;;5.10;3.78;;;;;;;17.45;77.74;98502.56;5028191;28;20041;-82
2023/07/20 01:41:12;;;;;;;4.70;3.03;;;;;;;17.33;78.26;98510.38;5023824;28;20462;-82
2023/07/20 01:43:37;;;;;;;6.00;3.72;;;;;;;17.08;78.97;98508.19;5021469;28;20137;-82
2023/07/20 01:46:02;;;;;;;5.60;3.78;;;;;;;16.86;78.88;98494.59;5035277;28;20038;-82
2023/07/20 01:48:28;;;;;;;3.92;3.63;;;;;;;16.95;79.18;98506.28;5009876;28;20128;-81
2023/07/20 01:50:53;;;;;;;4.20;3.25;;;;;;;17.27;78.33;98508.88;5006958;28;20060;-82
2023/07/20 01:53:20;;;;;;;4.85;3.08;;;;;;;17.16;77.98;98496.69;5022327;28;20063;-82
2023/07/20 01:55:45;;;;;;;5.00;2.90;;;;;;;17.36;77.36;98520.59;5039891;28;20492;-82
2023/07/20 01:58:10;;;;;;;3.72;2.90;;;;;;;17.09;77.81;98517.88;5021428;28;20072;-82
2023/07/20 02:00:39;;;;;;;3.70;3.22;;;;;;;16.77;79.43;98515.22;5015748;28;20120;-82
2023/07/20 02:03:05;;;;;;;4.13;3.75;;;;;;;16.50;80.30;98507.84;5009529;28;20036;-81
2023/07/20 02:05:30;;;;;;;7.85;3.58;;;;;;;16.95;78.65;98511.69;5026575;28;20034;-82
2023/07/20 02:07:55;;;;;;;3.95;2.72;;;;;;;17.18;78.19;98519.59;5009422;28;20037;-82
2023/07/20 02:10:21;;;;;;;4.57;3.42;;;;;;;16.97;78.98;98531.03;5026427;28;20077;-82
2023/07/20 02:12:47;;;;;;;3.50;2.85;;;;;;;16.82;79.00;98517.84;5023673;28;20027;-82
2023/07/20 02:15:16;;;;;;;5.93;3.17;;;;;;;16.46;80.98;98531.06;5028865;28;20029;-82
2023/07/20 02:17:42;;;;;;;5.03;4.10;;;;;;;15.77;83.85;98509.50;5034085;28;20029;-81
2023/07/20 02:20:11;;;;;;;11.02;4.00;;;;;;;15.94;83.85;98534.00;5027523;28;20028;-81
2023/07/20 02:22:37;;;;;;;4.38;2.97;;;;;;;16.60;81.80;98536.53;5029188;28;20033;-82
2023/07/20 02:25:07;;;;;;;7.55;4.25;;;;;;;16.38;81.43;98534.44;5030909;28;20045;-83
2023/07/20 02:27:33;;;;;;;5.72;3.90;;;;;;;16.49;81.25;98533.97;5044938;28;20561;-83
2023/07/20 02:29:58;;;;;;;6.70;3.75;;;;;;;16.81;80.83;98544.00;5010750;28;20033;-82
2023/07/20 02:32:23;;;;;;;3.83;2.78;;;;;;;17.04;79.35;98542.22;5035099;28;20036;-82
2023/07/20 02:34:49;;;;;;;4.30;3.55;;;;;;;16.91;79.87;98538.41;5024659;28;20032;-82
2023/07/20 02:37:16;;;;;;;6.55;3.95;;;;;;;16.90;80.17;98533.31;5032564;28;20128;-81
2023/07/20 02:39:41;;;;;;;5.95;5.10;;;;;;;16.32;81.90;98514.84;5026686;28;20060;-81
2023/07/20 02:42:07;;;;;;;7.75;2.80;;;;;;;16.87;80.80;98525.81;5009266;28;20519;-82
2023/07/20 02:44:32;;;;;;;4.47;3.78;;;;;;;16.74;80.00;98515.81;5027367;28;20064;-82
2023/07/20 02:46:57;;;;;;;5.22;3.08;;;;;;;16.95;80.07;98522.47;5012402;28;20037;-82
2023/07/20 02:49:23;;;;;;;6.88;3.03;;;;;;;17.09;79.32;98518.66;5025424;28;20029;-82
2023/07/20 02:51:48;;;;;;;5.75;2.50;;;;;;;17.39;78.75;98527.25;5009514;28;20026;-82
2023/07/20 02:54:14;;;;;;;3.45;2.47;;;;;;;17.17;79.25;98527.94;5021609;28;20242;-82
2023/07/20 02:56:40;;;;;;;3.33;2.40;;;;;;;17.32;78.30;98530.34;5028678;28;20040;-83
2023/07/20 02:59:05;;;;;;;3.10;2.58;;;;;;;17.29;78.85;98538.25;5034278;28;20051;-83
2023/07/20 03:01:30;;;;;;;11.52;2.80;;;;;;;17.23;79.04;98526.78;5026680;28;20041;-82
2023/07/20 03:03:56;;;;;;;2.85;2.55;;;;;;;16.96;78.95;98507.88;5023808;28;20021;-82
2023/07/20 03:06:22;;;;;;;2.33;2.13;;;;;;;17.16;78.70;98518.28;5011564;28;20126;-82
2023/07/20 03:08:48;;;;;;;4.05;2.17;;;;;;;17.29;77.86;98517.47;5020826;28;20037;-83
2023/07/20 03:11:18;;;;;;;2.60;2.40;;;;;;;17.01;78.63;98502.38;5021136;28;20040;-82
2023/07/20 03:13:43;;;;;;;3.00;2.30;;;;;;;17.00;79.34;98516.94;5022747;28;20063;-82
2023/07/20 03:16:15;;;;;;;2.22;1.90;;;;;;;17.22;78.30;98508.97;5017936;28;20033;-82
2023/07/20 03:18:41;;;;;;;3.05;2.67;;;;;;;17.13;78.37;98511.56;5019200;28;20053;-82
2023/07/20 03:21:08;;;;;;;5.07;3.28;;;;;;;17.18;78.58;98521.47;5023171;28;20051;-82
2023/07/20 03:23:34;;;;;;;3.10;2.78;;;;;;;17.20;78.64;98530.88;5025326;28;20017;-82
2023/07/20 03:26:00;;;;;;;5.78;3.40;;;;;;;17.14;77.87;98518.59;5026178;28;20049;-82
2023/07/20 03:28:25;;;;;;;3.58;2.80;;;;;;;17.20;77.71;98511.19;5001241;28;20120;-82
2023/07/20 03:30:55;;;;;;;6.05;3.05;;;;;;;17.29;78.05;98522.06;5006839;28;20055;-82
2023/07/20 03:33:22;;;;;;;3.38;2.72;;;;;;;17.37;77.31;98524.06;5025122;28;20075;-82
2023/07/20 03:35:47;;;;;;;3.95;3.20;;;;;;;17.19;78.03;98523.88;5020887;28;20346;-82
2023/07/20 03:38:12;;;;;;;4.10;3.15;;;;;;;16.91;79.04;98513.34;5005274;28;20636;-81
2023/07/20 03:40:38;;;;;;;4.57;3.80;;;;;;;16.69;79.71;98507.81;5029185;28;20088;-82
2023/07/20 03:43:03;;;;;;;7.03;3.53;;;;;;;17.13;79.14;98518.88;4989440;28;20369;-82
2023/07/20 03:45:28;;;;;;;4.57;4.18;;;;;;;16.49;80.78;98503.53;5024647;28;20397;-81
2023/07/20 03:47:54;;;;;;;4.30;3.90;;;;;;;16.76;80.17;98525.19;5010239;28;20404;-81
2023/07/20 03:50:19;;;;;;;7.10;6.40;;;;;;;16.56;80.70;98513.94;5032300;28;20461;-81
2023/07/20 03:52:44;;;;;;;4.78;4.28;;;;;;;16.98;79.94;98538.81;5029398;28;20029;-81
2023/07/20 03:55:10;;;;;;;8.38;6.40;;;;;;;16.34;81.49;98520.75;5009739;28;20033;-82
2023/07/20 03:57:35;;;;;;;5.72;5.18;;;;;;;16.45;81.81;98532.97;5015990;28;20036;-81
2023/07/20 04:00:01;;;;;;;6.15;4.55;;;;;;;16.58;81.45;98531.44;5012151;28;20034;-81
2023/07/20 04:02:26;;;;;;;11.55;6.60;;;;;;;16.52;80.99;98526.41;5025548;28;20061;-82
2023/07/20 04:04:51;;;;;;;11.80;8.10;;;;;;;16.45;80.71;98506.03;4997125;28;20029;-81
2023/07/20 04:07:17;;;;;;;8.02;6.05;;;;;;;16.76;80.03;98506.34;5021297;28;20041;-81
2023/07/20 04:09:42;;;;;;;5.65;5.05;;;;;;;17.08;79.49;98530.53;5016901;28;20037;-82
2023/07/20 04:12:07;;;;;;;6.10;5.53;;;;;;;17.04;79.09;98536.81;5032160;28;20039;-82
2023/07/20 04:14:33;;;;;;;9.68;7.03;;;;;;;16.71;80.25;98519.88;5024163;28;20030;-81
2023/07/20 04:17:00;;;;;;;4.78;4.38;;;;;;;17.03;79.08;98525.25;5027928;28;20041;-81
2023/07/20 04:19:25;;;;;;;6.05;5.45;;;;;;;17.05;79.46;98533.84;5028590;28;20404;-81
2023/07/20 04:21:51;;;;;;;5.85;5.35;;;;;;;17.18;79.01;98529.56;5022887;28;20021;-80
2023/07/20 04:24:16;;;;;;;6.57;5.13;;;;;;;17.08;79.46;98532.47;5012717;28;20029;-82
2023/07/20 04:26:42;;;;;;;8.20;6.25;;;;;;;17.03;79.68;98535.25;5014727;28;20485;-81
2023/07/20 04:29:07;;;;;;;6.75;5.82;;;;;;;16.73;80.57;98530.41;5021055;28;20499;-81
2023/07/20 04:31:33;;;;;;;5.90;5.38;;;;;;;16.89;79.46;98519.03;5023835;28;20030;-81
2023/07/20 04:33:58;;;;;;;6.20;5.57;;;;;;;16.95;80.02;98522.47;5024105;28;20029;-82
2023/07/20 04:36:24;;;;;;;9.48;6.50;;;;;;;17.10;78.92;98519.47;5022619;28;20538;-82
2023/07/20 04:38:49;;;;;;;7.45;6.00;;;;;;;17.22;78.95;98533.25;5022638;28;20124;-81
2023/07/20 04:41:15;;;;;;;7.15;6.10;;;;;;;17.12;79.69;98536.16;5024784;28;20045;-81
2023/07/20 04:43:44;;;;;;;12.02;8.50;;;;;;;17.01;79.93;98540.94;5018249;28;20501;-81
2023/07/20 04:46:10;;;;;;;6.95;6.07;;;;;;;17.11;79.32;98538.06;5021027;28;20088;-81
2023/07/20 04:48:36;;;;;;;6.40;5.80;;;;;;;17.14;79.17;98536.66;5024546;28;20021;-81
2023/07/20 04:51:03;;;;;;;7.93;6.25;;;;;;;17.19;78.86;98512.25;5021727;28;20527;-81
2023/07/20 04:53:28;;;;;;;6.93;6.20;;;;;;;17.27;78.94;98518.88;5029353;28;20408;-82
2023/07/20 04:55:54;;;;;;;8.20;6.35;;;;;;;17.09;79.15;98513.28;5024085;28;20033;-81
2023/07/20 04:58:21;;;;;;;8.60;6.60;;;;;;;17.31;78.44;98527.97;5010677;28;20044;-81
2023/07/20 05:00:48;;;;;;;8.20;6.57;;;;;;;17.31;79.29;98538.75;5028240;28;20033;-81
2023/07/20 05:03:14;;;;;;;7.82;6.97;;;;;;;17.34;78.66;98528.19;5029411;28;20030;-81
2023/07/20 05:05:39;;;;;;;9.52;6.60;;;;;;;17.31;78.85;98536.88;5015000;28;20042;-81
2023/07/20 05:08:04;;;;;;;14.70;10.88;;;;;;;16.96;80.11;98518.66;5023992;28;20033;-81
2023/07/20 05:10:30;;;;;;;11.38;7.43;;;;;;;17.21;79.33;98534.38;5010973;28;20037;-81
2023/07/20 05:12:55;;;;;;;8.85;7.43;;;;;;;17.11;79.93;98529.16;4991376;28;20040;-81
2023/07/20 05:15:20;;;;;;;8.70;7.05;;;;;;;17.15;79.73;98532.84;5012489;28;20061;-80
2023/07/20 05:17:48;;;;;;;12.50;7.20;;;;;;;17.26;78.88;98539.66;5023132;28;20039;-81
2023/07/20 05:20:14;;;;;;;10.20;7.53;;;;;;;17.19;78.76;98537.34;5013297;28;20030;-81
2023/07/20 05:22:40;;;;;;;8.05;7.25;;;;;;;17.36;78.58;98547.56;5029231;28;20029;-81
2023/07/20 05:25:09;;;;;;;9.55;8.18;;;;;;;17.28;78.98;98532.06;5008751;28;20056;-81
2023/07/20 05:27:37;;;;;;;7.60;6.80;;;;;;;17.35;78.63;98542.44;5027146;28;20048;-81
2023/07/20 05:30:02;;;;;;;10.18;8.32;;;;;;;17.24;78.59;98531.06;5010460;28;20037;-80
2023/07/20 05:32:28;;;;;;;8.63;7.80;;;;;;;17.22;78.30;98539.47;5028218;28;20341;-81
2023/07/20 05:34:54;;;;;;;10.65;7.25;;;;;;;16.88;81.05;98530.13;5021069;28;20414;-81
2023/07/20 05:37:20;;;;;;;10.07;7.57;;;;;;;17.03;79.80;98524.47;5033201;28;20192;-80
2023/07/20 05:39:45;;;;;;;9.25;8.18;;;;;;;17.08;80.27;98538.63;5026556;28;20056;-81
2023/07/20 05:42:10;;;;;;;10.68;8.05;;;;;;;17.00;81.23;98533.13;5035630;28;20033;-81
2023/07/20 05:44:36;;;;;;;9.82;8.40;;;;;;;17.13;80.15;98530.47;5011089;28;20037;-81
2023/07/20 05:47:02;;;;;;;11.02;9.43;;;;;;;17.30;79.55;98537.94;5022582;28;20025;-81
2023/07/20 05:49:27;;;;;;;11.73;8.82;;;;;;;17.18;80.34;98529.56;5022490;28;20045;-81
2023/07/20 05:51:53;;;;;;;11.05;9.25;;;;;;;17.34;80.03;98543.56;5023929;28;20047;-81
2023/07/20 05:54:19;;;;;;;14.68;10.35;;;;;;;17.45;79.27;98550.38;5022572;28;20436;-81
2023/07/20 05:56:45;;;;;;;11.68;9.93;;;;;;;17.38;79.56;98553.47;5028140;28;20037;-81
2023/07/20 05:59:11;;;;;;;13.70;10.40;;;;;;;17.45;79.55;98553.84;5025158;28;20052;-82
2023/07/20 06:01:36;;;;;;;10.57;9.35;;;;;;;17.40;79.64;98545.06;5024458;28;20029;-81
2023/07/20 06:04:03;;;;;;;9.80;7.85;;;;;;;17.47;79.99;98565.16;5043330;28;20033;-81
2023/07/20 06:06:28;;;;;;;9.57;8.57;;;;;;;17.41;80.07;98560.94;5026524;28;20037;-81
2023/07/20 06:08:54;;;;;;;13.52;9.00;;;;;;;17.50;80.27;98561.88;5021033;28;20091;-81
2023/07/20 06:11:20;;;;;;;10.65;8.88;;;;;;;17.48;79.68;98560.53;4999897;28;20065;-82
2023/07/20 06:13:45;;;;;;;23.23;10.43;;;;;;;17.63;79.66;98562.97;5012107;28;20039;-83
2023/07/20 06:16:11;;;;;;;20.98;16.05;;;;;;;17.17;81.67;98549.53;5028812;28;20036;-83
2023/07/20 06:18:36;;;;;;;14.18;11.27;;;;;;;17.49;79.67;98560.25;5003153;28;20048;-82
2023/07/20 06:21:02;;;;;;;16.25;12.00;;;;;;;17.56;80.36;98565.28;5014837;28;20037;-82
2023/07/20 06:23:27;;;;;;;12.55;10.88;;;;;;;17.40;80.98;98562.06;5021594;28;20515;-82
2023/07/20 06:25:52;;;;;;;13.18;10.80;;;;;;;17.42;80.71;98561.75;5010032;28;20049;-83
2023/07/20 06:28:18;;;;;;;18.95;11.57;;;;;;;17.36;79.82;98558.34;5008131;28;20072;-83
2023/07/20 06:30:43;;;;;;;13.70;11.90;;;;;;;17.21;81.34;98558.66;5010858;28;20025;-82
2023/07/20 06:33:09;;;;;;;16.73;11.73;;;;;;;17.29;80.60;98562.53;5019331;28;20053;-81
2023/07/20 06:35:35;;;;;;;14.30;10.95;;;;;;;17.20;81.20;98555.16;5025688;28;20025;-81
2023/07/20 06:38:03;;;;;;;15.95;11.93;;;;;;;17.24;81.67;98563.44;5022809;28;20030;-82
2023/07/20 06:40:30;;;;;;;15.15;11.80;;;;;;;17.17;81.22;98541.44;5023573;28;20067;-81
2023/07/20 06:42:55;;;;;;;15.85;10.90;;;;;;;17.22;81.06;98550.25;5023062;28;20498;-82
2023/07/20 06:45:21;;;;;;;15.25;11.13;;;;;;;17.17;81.71;98552.22;5019034;28;20064;-81
2023/07/20 06:47:46;;;;;;;12.05;10.85;;;;;;;17.14;81.80;98563.63;5013584;28;20025;-82
2023/07/20 06:50:12;;;;;;;14.75;9.63;;;;;;;17.17;81.09;98571.09;5025844;28;20061;-81
2023/07/20 06:52:37;;;;;;;15.27;9.40;;;;;;;17.16;82.30;98575.72;5022141;28;20083;-82
2023/07/20 06:55:03;;;;;;;13.85;8.77;;;;;;;17.05;81.79;98574.31;5020643;28;20900;-83
2023/07/20 06:57:29;;;;;;;12.88;9.07;;;;;;;17.10;81.72;98559.94;5005370;28;20033;-82
2023/07/20 06:59:54;;;;;;;11.65;9.65;;;;;;;17.19;81.07;98577.00;5023674;28;20128;-82
2023/07/20 07:02:19;;;;;;;11.02;8.68;;;;;;;17.23;80.90;98575.34;5023535;28;20031;-82
2023/07/20 07:04:46;;;;;;;11.00;8.10;;;;;;;17.27;80.81;98584.44;5018382;28;20036;-82
2023/07/20 07:07:14;;;;;;;9.70;7.38;;;;;;;17.32;81.06;98588.94;5018617;28;20041;-82
2023/07/20 07:09:39;;;;;;;10.43;8.10;;;;;;;17.35;80.92;98591.81;5022424;28;20048;-82
2023/07/20 07:12:05;;;;;;;11.15;8.38;;;;;;;17.27;80.28;98573.63;5019858;28;20493;-82
2023/07/20 07:14:30;;;;;;;8.93;8.02;;;;;;;17.05;81.44;98587.78;5008471;28;20497;-82
2023/07/20 07:16:56;;;;;;;10.52;8.45;;;;;;;17.03;81.89;98592.69;5018522;28;20760;-83
2023/07/20 07:19:21;;;;;;;11.90;8.25;;;;;;;17.20;81.07;98600.19;5025552;28;20071;-82
2023/07/20 07:21:46;;;;;;;9.13;8.20;;;;;;;16.91;82.80;98597.72;5009384;28;20057;-83
2023/07/20 07:24:12;;;;;;;14.55;12.52;;;;;;;16.54;83.80;98611.25;5010789;28;20025;-83
2023/07/20 07:26:37;;;;;;;10.57;9.18;;;;;;;16.95;82.61;98611.44;5023808;28;20409;-84
2023/07/20 07:29:03;;;;;;;11.35;9.35;;;;;;;16.60;82.79;98601.22;5002536;28;20038;-82
2023/07/20 07:31:30;;;;;;;7.60;6.72;;;;;;;16.86;82.57;98607.81;5024399;28;20040;-82
2023/07/20 07:33:56;;;;;;;6.47;5.75;;;;;;;16.38;84.07;98589.09;5018379;28;20038;-82
2023/07/20 07:36:21;;;;;;;6.95;5.88;;;;;;;17.01;81.67;98610.25;5020054;28;20160;-81
2023/07/20 07:38:46;;;;;;;5.85;4.68;;;;;;;16.79;82.77;98607.38;5025157;28;20030;-81
2023/07/20 07:41:12;;;;;;;5.63;5.13;;;;;;;16.83;82.28;98611.06;5026954;28;20037;-82
2023/07/20 07:43:38;;;;;;;4.00;3.60;;;;;;;16.34;84.71;98628.47;5024410;28;20044;-82
2023/07/20 07:46:04;;;;;;;5.00;3.72;;;;;;;16.96;81.87;98599.53;5012774;28;20180;-82
2023/07/20 07:48:29;;;;;;;4.28;3.13;;;;;;;16.86;81.42;98595.09;5016483;28;20116;-83
2023/07/20 07:50:55;;;;;;;5.68;3.60;;;;;;;17.17;80.95;98628.56;5022497;28;20046;-82
2023/07/20 07:53:20;;;;;;;4.70;4.13;;;;;;;17.05;81.09;98603.16;5019330;28;20018;-82
2023/07/20 07:55:48;;;;;;;3.60;3.22;;;;;;;16.86;82.41;98634.75;5036740;28;20131;-82
2023/07/20 07:58:13;;;;;;;3.88;3.53;;;;;;;16.79;82.84;98623.53;5019844;28;20033;-82
2023/07/20 08:00:39;;;;;;;4.88;3.72;;;;;;;17.04;81.29;98623.13;5004875;28;20051;-82
2023/07/20 08:03:06;;;;;;;3.28;3.08;;;;;;;17.21;80.93;98636.88;5028174;28;20037;-82
2023/07/20 08:05:33;;;;;;;3.15;2.85;;;;;;;17.29;81.00;98646.97;5022973;28;20021;-82
2023/07/20 08:07:58;;;;;;;5.78;3.55;;;;;;;17.06;82.60;98631.72;5021969;28;20128;-82
2023/07/20 08:10:24;;;;;;;2.78;2.58;;;;;;;17.19;81.55;98630.94;5028072;28;20557;-81
2023/07/20 08:12:49;;;;;;;3.80;2.67;;;;;;;17.32;81.57;98649.06;5021870;28;20034;-81
2023/07/20 08:15:15;;;;;;;4.75;2.78;;;;;;;17.55;79.97;98642.75;5012099;28;20489;-82
2023/07/20 08:17:44;;;;;;;3.50;2.20;;;;;;;17.63;80.13;98644.75;5004283;28;20044;-81
2023/07/20 08:20:12;;;;;;;8.32;2.88;;;;;;;17.58;80.17;98654.84;5019342;28;20037;-81
2023/07/20 08:22:38;;;;;;;2.95;2.63;;;;;;;17.53;80.05;98641.44;5025035;28;20029;-81
2023/07/20 08:25:03;;;;;;;3.47;2.13;;;;;;;17.79;78.04;98647.94;5022491;28;20035;-81
2023/07/20 08:27:29;;;;;;;3.40;3.10;;;;;;;17.49;80.65;98649.31;5018368;28;20036;-80
2023/07/20 08:29:54;;;;;;;2.70;2.50;;;;;;;17.66;80.14;98662.25;5021133;28;20107;-81
2023/07/20 08:32:19;;;;;;;2.65;2.45;;;;;;;17.69;79.91;98667.06;5013876;28;21891;-81
2023/07/20 08:34:45;;;;;;;4.32;3.67;;;;;;;17.42;81.34;98664.28;5013013;28;20639;-81
2023/07/20 08:37:10;;;;;;;2.75;2.55;;;;;;;17.74;80.20;98670.44;5016370;28;20030;-80
2023/07/20 08:39:36;;;;;;;3.30;3.05;;;;;;;17.73;80.00;98668.88;5017676;28;20548;-80
2023/07/20 08:42:04;;;;;;;3.25;2.80;;;;;;;17.97;78.22;98665.97;4987282;28;20045;-80
2023/07/20 08:44:32;;;;;;;4.70;2.42;;;;;;;18.01;77.94;98669.66;5017785;28;20022;-80
2023/07/20 08:46:59;;;;;;;3.65;2.45;;;;;;;17.85;78.16;98661.06;5015780;28;20124;-80
2023/07/20 08:49:24;;;;;;;2.72;2.53;;;;;;;17.87;78.51;98671.53;5017427;28;20568;-79
2023/07/20 08:51:52;;;;;;;2.95;2.65;;;;;;;17.86;78.86;98681.56;5005419;28;20140;-79
2023/07/20 08:54:17;;;;;;;2.30;2.10;;;;;;;17.87;77.99;98672.34;5022945;28;20048;-79
2023/07/20 08:56:45;;;;;;;2.30;2.20;;;;;;;17.93;78.49;98687.34;5027263;28;20042;-80
2023/07/20 08:59:12;;;;;;;3.42;2.28;;;;;;;17.96;77.54;98675.97;5018977;28;20033;-80
2023/07/20 09:01:39;;;;;;;2.63;2.33;;;;;;;17.98;78.21;98689.16;5010654;28;20029;-80
2023/07/20 09:04:04;;;;;;;4.63;2.35;;;;;;;18.03;77.45;98677.44;5028125;28;20078;-80
2023/07/20 09:06:30;;;;;;;2.00;1.90;;;;;;;18.04;77.18;98674.47;5027517;28;20961;-79
2023/07/20 09:08:56;;;;;;;2.35;2.15;;;;;;;18.13;77.73;98682.66;5024794;28;20052;-79
2023/07/20 09:11:21;;;;;;;3.65;2.25;;;;;;;18.16;77.75;98682.06;5023254;28;20053;-79
2023/07/20 09:13:47;;;;;;;2.13;1.85;;;;;;;18.05;78.33;98684.16;5025486;28;20035;-79
2023/07/20 09:16:15;;;;;;;3.08;2.88;;;;;;;17.70;79.06;98682.94;5025602;28;20048;-79
2023/07/20 09:18:41;;;;;;;2.85;2.47;;;;;;;17.97;78.16;98677.53;5025113;28;20125;-79
2023/07/20 09:21:07;;;;;;;2.83;2.63;;;;;;;18.01;78.01;98676.97;5025413;28;20496;-78
2023/07/20 09:23:41;;;;;;;4.18;2.00;;;;;;;18.05;78.64;98675.25;5011831;28;20022;-78
2023/07/20 09:26:10;;;;;;;2.55;2.42;;;;;;;17.64;78.61;98677.94;5020246;28;20033;-78
2023/07/20 09:28:51;;;;;;;4.00;2.72;;;;;;;17.70;77.53;98680.25;5019669;28;20071;-78
2023/07/20 09:31:22;;;;;;;2.58;2.47;;;;;;;18.02;77.28;98675.88;5022991;28;20025;-78
2023/07/20 09:33:48;;;;;;;1.85;1.75;;;;;;;18.23;76.69;98683.25;5020238;28;20451;-78
2023/07/20 09:36:14;;;;;;;1.88;1.77;;;;;;;18.45;75.36;98688.75;5021142;28;20025;-79
2023/07/20 09:38:41;;;;;;;2.15;2.05;;;;;;;18.48;75.17;98698.16;5022327;28;20037;-79
2023/07/20 09:41:06;;;;;;;2.25;2.05;;;;;;;18.43;75.52;98690.13;5007880;28;20460;-79
2023/07/20 09:43:34;;;;;;;2.40;2.00;;;;;;;18.41;75.84;98708.56;5022368;28;20057;-79
2023/07/20 09:45:59;;;;;;;2.53;2.00;;;;;;;18.56;75.08;98706.38;5015238;28;20110;-79
2023/07/20 09:48:26;;;;;;;1.85;1.75;;;;;;;18.30;75.58;98701.75;5027300;28;20038;-79
2023/07/20 09:50:52;;;;;;;2.30;1.75;;;;;;;18.73;74.35;98702.19;5029733;28;20030;-79
2023/07/20 09:53:18;;;;;;;2.08;1.85;;;;;;;18.53;75.47;98701.56;5028597;28;20480;-79
2023/07/20 09:55:48;;;;;;;3.72;1.95;;;;;;;18.66;74.94;98694.50;5022193;28;20034;-79
2023/07/20 09:58:15;;;;;;;1.63;1.45;;;;;;;18.63;74.60;98685.09;5021283;28;20083;-79
2023/07/20 10:00:49;;;;;;;1.80;1.70;;;;;;;18.93;73.43;98699.03;5035102;28;20032;-79
2023/07/20 10:03:19;;;;;;;1.33;1.33;;;;;;;18.94;73.36;98709.53;5027433;28;20021;-79
2023/07/20 10:06:08;;;;;;;1.98;1.40;;;;;;;19.03;72.90;98710.41;5036466;28;20266;-79
2023/07/20 10:08:39;;;;;;;2.75;1.33;;;;;;;18.97;73.31;98708.94;5024246;28;20029;-79
2023/07/20 10:11:07;;;;;;;1.48;1.38;;;;;;;18.65;74.39;98707.22;5025512;28;20059;-79
2023/07/20 10:13:38;;;;;;;4.28;1.40;;;;;;;18.93;73.24;98702.56;5019830;28;20025;-79
2023/07/20 10:16:21;;;;;;;1.48;1.35;;;;;;;18.69;75.28;98694.72;5026288;28;20049;-79
2023/07/20 10:18:54;;;;;;;1.85;1.40;;;;;;;18.79;73.34;98704.50;5004195;28;20081;-79
2023/07/20 10:21:24;;;;;;;1.08;1.05;;;;;;;18.43;69.87;98695.53;5021034;28;20112;-79
2023/07/20 10:23:49;;;;;;;4.45;1.40;;;;;;;18.89;73.20;98690.75;5025422;28;20083;-79
2023/07/20 10:26:15;;;;;;;2.58;1.58;;;;;;;18.82;72.62;98681.44;5015758;28;20041;-79
2023/07/20 10:28:41;;;;;;;2.58;1.40;;;;;;;19.20;70.65;98685.38;5036189;28;20148;-79
2023/07/20 10:31:13;;;;;;;1.60;1.23;;;;;;;19.29;70.74;98686.25;5025951;28;20022;-79
2023/07/20 10:33:39;;;;;;;2.58;1.02;;;;;;;19.30;69.30;98669.72;5028151;28;20021;-79
2023/07/20 10:36:06;;;;;;;1.30;1.20;;;;;;;19.26;69.84;98689.59;5027159;28;20060;-79
2023/07/20 10:38:46;;;;;;;7.72;1.40;;;;;;;19.67;68.23;98683.94;5039193;28;20025;-79
2023/07/20 10:41:18;;;;;;;5.85;1.20;;;;;;;19.84;67.80;98682.13;5029095;28;20021;-79
2023/07/20 10:43:44;;;;;;;0.82;0.82;;;;;;;19.95;67.29;98671.78;5031980;28;20024;-79
2023/07/20 10:46:12;;;;;;;4.00;1.40;;;;;;;20.02;65.67;98670.25;5035060;28;20538;-79
2023/07/20 10:49:02;;;;;;;3.40;1.35;;;;;;;20.27;65.51;98676.09;5032353;28;20060;-79
2023/07/20 10:51:28;;;;;;;3.85;0.90;;;;;;;20.15;65.50;98671.22;5028630;28;20036;-79
2023/07/20 10:53:56;;;;;;;3.95;1.48;;;;;;;20.28;65.30;98686.59;5026699;28;20120;-79
2023/07/20 10:56:25;;;;;;;7.35;1.90;;;;;;;20.20;64.91;98687.34;5015594;28;20033;-80
2023/07/20 10:58:56;;;;;;;8.85;1.50;;;;;;;20.29;65.24;98680.06;5025833;28;20025;-79
2023/07/20 11:01:28;;;;;;;6.50;5.65;;;;;;;20.03;63.86;98681.84;5020789;28;20025;-79
2023/07/20 11:03:58;;;;;;;4.45;1.40;;;;;;;20.10;65.54;98672.16;5020680;28;20037;-79
2023/07/20 11:06:26;;;;;;;1.65;1.30;;;;;;;20.02;63.59;98693.81;5023445;28;20183;-79
2023/07/20 11:09:07;;;;;;;1.73;1.40;;;;;;;19.92;63.93;98691.41;5019370;28;20084;-79
2023/07/20 11:11:37;;;;;;;4.88;1.52;;;;;;;20.03;62.87;98682.66;5022067;28;20096;-79
2023/07/20 11:14:04;;;;;;;1.60;1.35;;;;;;;20.39;62.29;98689.81;5023018;28;20093;-80
2023/07/20 11:16:46;;;;;;;5.47;1.35;;;;;;;20.66;60.80;98684.91;5006228;28;20512;-79
2023/07/20 11:19:20;;;;;;;3.38;0.88;;;;;;;20.58;60.96;98674.84;5031382;28;20028;-80
2023/07/20 11:21:49;;;;;;;1.05;0.63;;;;;;;20.91;59.25;98675.19;5021191;28;20480;-79
2023/07/20 11:24:15;;;;;;;3.15;1.08;;;;;;;21.03;59.46;98677.25;5013082;28;20466;-79
2023/07/20 11:26:45;;;;;;;1.10;0.57;;;;;;;21.23;58.96;98682.84;5029083;28;20074;-79
2023/07/20 11:29:11;;;;;;;4.70;1.48;;;;;;;21.28;58.36;98676.44;5009148;28;20037;-79
2023/07/20 11:31:38;;;;;;;2.08;0.88;;;;;;;21.51;57.84;98691.44;5026240;28;20396;-79